sensor_id;sensor_type;location;lat;lon;timestamp;pressure;altitude;pressure_sealevel;temperature;humidity
53671;BME280;39571;48.612;8.088;2023-04-26T06:51:32;99997.84;;;24.80;56.49
53671;BME280;39571;48.612;8.088;2023-04-26T06:53:58;99991.22;;;27.05;44.24
53671;BME280;39571;48.612;8.088;2023-04-26T06:56:25;99984.47;;;27.45;43.30
53671;BME280;39571;48.612;8.088;2023-04-26T06:59:04;99980.19;;;28.94;38.62
53671;BME280;39571;48.612;8.088;2023-04-26T07:01:30;99982.59;;;29.69;36.97
53671;BME280;39571;48.612;8.088;2023-04-26T07:03:59;99983.59;;;29.58;36.02
53671;BME280;39571;48.612;8.088;2023-04-26T07:06:27;99970.38;;;28.93;36.90
53671;BME280;39571;48.612;8.088;2023-04-26T07:18:04;99970.00;;;26.43;39.38
53671;BME280;39571;48.612;8.088;2023-04-26T07:20:29;99984.06;;;24.46;44.20
53671;BME280;39571;48.612;8.088;2023-04-26T07:22:54;99980.66;;;23.62;44.94
53671;BME280;39571;48.612;8.088;2023-04-26T07:34:56;100011.13;;;15.85;100.00
53671;BME280;39571;48.612;8.088;2023-04-26T07:37:21;100003.47;;;15.76;100.00
53671;BME280;39571;48.612;8.088;2023-04-26T07:39:47;99998.47;;;15.66;100.00
53671;BME280;39571;48.612;8.088;2023-04-26T07:42:12;99998.78;;;15.85;100.00
53671;BME280;39571;48.612;8.088;2023-04-26T07:44:38;100000.75;;;15.49;100.00
53671;BME280;39571;48.612;8.088;2023-04-26T07:47:03;99998.59;;;15.63;100.00
53671;BME280;39571;48.612;8.088;2023-04-26T07:49:28;100007.66;;;15.83;100.00
53671;BME280;39571;48.612;8.088;2023-04-26T07:51:54;100005.31;;;15.74;100.00
53671;BME280;39571;48.612;8.088;2023-04-26T07:54:20;100007.78;;;15.18;100.00
53671;BME280;39571;48.612;8.088;2023-04-26T07:56:45;100008.44;;;15.26;100.00
53671;BME280;39571;48.612;8.088;2023-04-26T07:59:11;100006.41;;;15.36;100.00
53671;BME280;39571;48.612;8.088;2023-04-26T08:01:36;100009.91;;;15.05;100.00
53671;BME280;39571;48.612;8.088;2023-04-26T08:04:02;100014.97;;;15.13;100.00
53671;BME280;39571;48.612;8.088;2023-04-26T08:06:28;100020.28;;;15.42;100.00
53671;BME280;39571;48.612;8.088;2023-04-26T08:08:54;100024.59;;;15.45;100.00
53671;BME280;39571;48.612;8.088;2023-04-26T08:11:19;100019.97;;;15.54;100.00
53671;BME280;39571;48.612;8.088;2023-04-26T08:13:44;100022.66;;;15.82;100.00
53671;BME280;39571;48.612;8.088;2023-04-26T08:16:10;100013.84;;;16.37;100.00
53671;BME280;39571;48.612;8.088;2023-04-26T08:18:35;100000.94;;;21.05;81.85
53671;BME280;39571;48.612;8.088;2023-04-26T08:21:01;99992.09;;;25.87;45.45
53671;BME280;39571;48.612;8.088;2023-04-26T08:23:28;99989.03;;;28.32;39.26
53671;BME280;39571;48.612;8.088;2023-04-26T08:25:53;99984.72;;;29.14;35.75
53671;BME280;39571;48.612;8.088;2023-04-26T08:28:19;99983.13;;;30.42;33.41
53671;BME280;39571;48.612;8.088;2023-04-26T08:30:45;99978.66;;;32.82;29.51
53671;BME280;39571;48.612;8.088;2023-04-26T08:33:10;99963.03;;;34.45;27.65
53671;BME280;39571;48.612;8.088;2023-04-26T08:35:35;99963.91;;;35.10;25.22
53671;BME280;39571;48.612;8.088;2023-04-26T08:38:01;99954.88;;;35.89;24.57
53671;BME280;39571;48.612;8.088;2023-04-26T08:40:29;99956.56;;;36.21;24.36
53671;BME280;39571;48.612;8.088;2023-04-26T08:42:54;99943.91;;;37.77;22.31
53671;BME280;39571;48.612;8.088;2023-04-26T08:45:20;99943.97;;;37.84;21.21
53671;BME280;39571;48.612;8.088;2023-04-26T08:47:50;99952.41;;;35.71;22.45
53671;BME280;39571;48.612;8.088;2023-04-26T08:50:21;99945.88;;;33.19;24.61
53671;BME280;39571;48.612;8.088;2023-04-26T08:52:48;99935.88;;;35.10;23.08
53671;BME280;39571;48.612;8.088;2023-04-26T08:55:14;99940.75;;;30.72;25.64
53671;BME280;39571;48.612;8.088;2023-04-26T08:57:41;99956.19;;;26.13;30.43
53671;BME280;39571;48.612;8.088;2023-04-26T09:00:08;99955.91;;;25.43;33.33
53671;BME280;39571;48.612;8.088;2023-04-26T09:02:40;99957.94;;;22.99;37.20
53671;BME280;39571;48.612;8.088;2023-04-26T09:05:09;99964.19;;;21.93;38.82
53671;BME280;39571;48.612;8.088;2023-04-26T09:07:43;99951.69;;;21.13;41.90
53671;BME280;39571;48.612;8.088;2023-04-26T09:10:10;99957.47;;;20.18;43.66
53671;BME280;39571;48.612;8.088;2023-04-26T09:12:36;99961.84;;;19.07;44.87
53671;BME280;39571;48.612;8.088;2023-04-26T09:15:02;99968.94;;;18.25;46.72
53671;BME280;39571;48.612;8.088;2023-04-26T09:17:32;99972.97;;;17.91;53.13
53671;BME280;39571;48.612;8.088;2023-04-26T09:19:59;99971.81;;;18.20;56.66
53671;BME280;39571;48.612;8.088;2023-04-26T09:22:33;99971.78;;;17.77;57.10
53671;BME280;39571;48.612;8.088;2023-04-26T09:25:00;99970.13;;;17.51;59.58
53671;BME280;39571;48.612;8.088;2023-04-26T09:27:40;99977.34;;;16.99;64.63
53671;BME280;39571;48.612;8.088;2023-04-26T09:30:07;99981.78;;;16.22;62.91
53671;BME280;39571;48.612;8.088;2023-04-26T09:32:45;99977.03;;;16.31;76.63
53671;BME280;39571;48.612;8.088;2023-04-26T09:35:39;99973.34;;;16.88;72.25
53671;BME280;39571;48.612;8.088;2023-04-26T09:38:06;99968.22;;;16.83;76.22
53671;BME280;39571;48.612;8.088;2023-04-26T09:45:28;99951.16;;;16.69;85.67
53671;BME280;39571;48.612;8.088;2023-04-26T09:47:54;99956.84;;;16.81;83.12
53671;BME280;39571;48.612;8.088;2023-04-26T09:50:30;99960.75;;;16.71;80.89
53671;BME280;39571;48.612;8.088;2023-04-26T09:52:56;99961.38;;;16.51;80.96
53671;BME280;39571;48.612;8.088;2023-04-26T09:55:29;99954.69;;;16.67;81.90
53671;BME280;39571;48.612;8.088;2023-04-26T09:57:59;99958.47;;;16.60;88.11
53671;BME280;39571;48.612;8.088;2023-04-26T10:00:31;99960.19;;;16.35;79.56
53671;BME280;39571;48.612;8.088;2023-04-26T10:02:57;99955.91;;;16.31;84.88
53671;BME280;39571;48.612;8.088;2023-04-26T10:05:23;99947.69;;;16.14;86.32
53671;BME280;39571;48.612;8.088;2023-04-26T10:07:48;99954.22;;;16.30;88.29
53671;BME280;39571;48.612;8.088;2023-04-26T10:10:15;99962.50;;;15.92;87.63
53671;BME280;39571;48.612;8.088;2023-04-26T10:12:40;99958.09;;;15.92;83.78
53671;BME280;39571;48.612;8.088;2023-04-26T10:15:08;99954.38;;;15.72;83.29
53671;BME280;39571;48.612;8.088;2023-04-26T10:17:34;99955.97;;;15.76;82.96
53671;BME280;39571;48.612;8.088;2023-04-26T10:20:00;99950.88;;;15.70;88.96
53671;BME280;39571;48.612;8.088;2023-04-26T10:22:31;99946.28;;;15.76;81.59
53671;BME280;39571;48.612;8.088;2023-04-26T10:24:58;99943.84;;;15.98;88.32
53671;BME280;39571;48.612;8.088;2023-04-26T10:27:46;99952.06;;;15.89;92.52
53671;BME280;39571;48.612;8.088;2023-04-26T10:30:12;99946.94;;;15.83;96.35
53671;BME280;39571;48.612;8.088;2023-04-26T10:35:31;99951.53;;;15.48;90.18
53671;BME280;39571;48.612;8.088;2023-04-26T10:40:36;99954.06;;;15.22;84.92
53671;BME280;39571;48.612;8.088;2023-04-26T10:45:41;99944.69;;;15.12;92.08
53671;BME280;39571;48.612;8.088;2023-04-26T10:48:16;99947.44;;;15.09;85.42
53671;BME280;39571;48.612;8.088;2023-04-26T10:53:56;99933.88;;;14.92;86.56
53671;BME280;39571;48.612;8.088;2023-04-26T10:59:08;99934.00;;;14.55;93.41
53671;BME280;39571;48.612;8.088;2023-04-26T11:01:33;99933.00;;;14.59;94.80
53671;BME280;39571;48.612;8.088;2023-04-26T11:06:25;99916.69;;;14.79;95.54
53671;BME280;39571;48.612;8.088;2023-04-26T11:08:52;99917.97;;;14.95;93.20
53671;BME280;39571;48.612;8.088;2023-04-26T11:11:17;99914.03;;;15.09;87.81
53671;BME280;39571;48.612;8.088;2023-04-26T11:13:44;99913.78;;;15.17;90.32
53671;BME280;39571;48.612;8.088;2023-04-26T11:16:14;99905.88;;;15.46;86.55
53671;BME280;39571;48.612;8.088;2023-04-26T11:18:44;99901.09;;;15.59;80.37
53671;BME280;39571;48.612;8.088;2023-04-26T11:21:10;99906.56;;;15.53;84.22
53671;BME280;39571;48.612;8.088;2023-04-26T11:23:52;99903.78;;;15.57;82.35
53671;BME280;39571;48.612;8.088;2023-04-26T11:26:17;99895.16;;;15.52;91.06
53671;BME280;39571;48.612;8.088;2023-04-26T11:28:43;99890.53;;;15.02;79.99
53671;BME280;39571;48.612;8.088;2023-04-26T11:31:10;99892.53;;;15.23;88.63
53671;BME280;39571;48.612;8.088;2023-04-26T11:33:35;99897.22;;;15.41;90.34
53671;BME280;39571;48.612;8.088;2023-04-26T11:36:01;99890.06;;;15.45;76.13
53671;BME280;39571;48.612;8.088;2023-04-26T11:38:27;99882.50;;;15.63;84.12
53671;BME280;39571;48.612;8.088;2023-04-26T11:41:01;99875.75;;;15.81;77.98
53671;BME280;39571;48.612;8.088;2023-04-26T11:43:37;99875.44;;;15.90;73.91
53671;BME280;39571;48.612;8.088;2023-04-26T11:46:04;99868.69;;;16.08;74.64
53671;BME280;39571;48.612;8.088;2023-04-26T11:48:31;99867.38;;;15.95;66.70
53671;BME280;39571;48.612;8.088;2023-04-26T11:50:58;99865.09;;;15.84;63.32
53671;BME280;39571;48.612;8.088;2023-04-26T11:53:24;99859.06;;;15.81;63.27
53671;BME280;39571;48.612;8.088;2023-04-26T11:55:50;99860.16;;;16.00;72.84
53671;BME280;39571;48.612;8.088;2023-04-26T11:58:16;99863.44;;;15.82;67.29
53671;BME280;39571;48.612;8.088;2023-04-26T12:01:01;99863.97;;;15.91;68.27
53671;BME280;39571;48.612;8.088;2023-04-26T12:03:34;99862.28;;;15.62;67.45
53671;BME280;39571;48.612;8.088;2023-04-26T12:06:02;99873.47;;;15.41;65.95
53671;BME280;39571;48.612;8.088;2023-04-26T12:08:28;99872.97;;;15.30;64.84
53671;BME280;39571;48.612;8.088;2023-04-26T12:10:58;99875.59;;;15.59;68.92
53671;BME280;39571;48.612;8.088;2023-04-26T12:13:25;99866.34;;;15.73;70.41
53671;BME280;39571;48.612;8.088;2023-04-26T12:15:50;99861.81;;;15.78;68.07
53671;BME280;39571;48.612;8.088;2023-04-26T12:18:17;99865.09;;;15.84;69.44
53671;BME280;39571;48.612;8.088;2023-04-26T12:20:43;99874.41;;;15.96;71.88
53671;BME280;39571;48.612;8.088;2023-04-26T12:23:12;99860.50;;;16.15;69.95
53671;BME280;39571;48.612;8.088;2023-04-26T12:25:39;99847.25;;;16.17;68.14
53671;BME280;39571;48.612;8.088;2023-04-26T12:28:07;99851.22;;;16.04;66.66
53671;BME280;39571;48.612;8.088;2023-04-26T12:30:36;99846.59;;;16.10;67.88
53671;BME280;39571;48.612;8.088;2023-04-26T12:33:01;99856.09;;;16.16;74.07
53671;BME280;39571;48.612;8.088;2023-04-26T12:35:27;99853.47;;;16.16;64.26
53671;BME280;39571;48.612;8.088;2023-04-26T12:37:53;99842.63;;;15.99;59.10
53671;BME280;39571;48.612;8.088;2023-04-26T12:40:23;99844.53;;;15.94;56.93
53671;BME280;39571;48.612;8.088;2023-04-26T12:42:49;99843.13;;;15.84;65.72
53671;BME280;39571;48.612;8.088;2023-04-26T12:45:16;99846.38;;;15.92;66.69
53671;BME280;39571;48.612;8.088;2023-04-26T12:47:43;99843.25;;;16.05;65.17
53671;BME280;39571;48.612;8.088;2023-04-26T12:50:09;99847.56;;;16.08;61.54
53671;BME280;39571;48.612;8.088;2023-04-26T12:52:37;99854.94;;;15.72;61.60
53671;BME280;39571;48.612;8.088;2023-04-26T12:55:03;99843.66;;;15.69;63.47
53671;BME280;39571;48.612;8.088;2023-04-26T12:57:29;99851.47;;;15.72;66.92
53671;BME280;39571;48.612;8.088;2023-04-26T12:59:54;99849.81;;;15.68;69.30
53671;BME280;39571;48.612;8.088;2023-04-26T13:02:21;99850.53;;;15.73;68.91
53671;BME280;39571;48.612;8.088;2023-04-26T13:04:46;99852.47;;;15.68;62.49
53671;BME280;39571;48.612;8.088;2023-04-26T13:07:11;99860.13;;;15.75;65.01
53671;BME280;39571;48.612;8.088;2023-04-26T13:09:37;99851.38;;;15.73;63.16
53671;BME280;39571;48.612;8.088;2023-04-26T13:12:02;99852.25;;;15.74;63.13
53671;BME280;39571;48.612;8.088;2023-04-26T13:14:28;99859.47;;;15.69;59.18
53671;BME280;39571;48.612;8.088;2023-04-26T13:16:53;99855.44;;;15.57;60.13
53671;BME280;39571;48.612;8.088;2023-04-26T13:19:18;99856.09;;;15.36;59.52
53671;BME280;39571;48.612;8.088;2023-04-26T13:21:44;99854.94;;;15.44;63.38
53671;BME280;39571;48.612;8.088;2023-04-26T13:24:09;99856.88;;;15.67;66.63
53671;BME280;39571;48.612;8.088;2023-04-26T13:26:35;99851.47;;;15.72;68.30
53671;BME280;39571;48.612;8.088;2023-04-26T13:29:00;99839.97;;;15.73;70.85
53671;BME280;39571;48.612;8.088;2023-04-26T13:31:26;99844.72;;;15.89;72.96
53671;BME280;39571;48.612;8.088;2023-04-26T13:33:51;99834.19;;;15.88;63.49
53671;BME280;39571;48.612;8.088;2023-04-26T13:36:17;99847.97;;;15.70;60.98
53671;BME280;39571;48.612;8.088;2023-04-26T13:38:43;99836.22;;;15.80;67.43
53671;BME280;39571;48.612;8.088;2023-04-26T13:41:09;99827.72;;;15.72;62.82
53671;BME280;39571;48.612;8.088;2023-04-26T13:43:34;99828.59;;;15.97;69.34
53671;BME280;39571;48.612;8.088;2023-04-26T13:46:00;99827.56;;;16.01;66.15
53671;BME280;39571;48.612;8.088;2023-04-26T13:48:26;99835.81;;;15.92;60.10
53671;BME280;39571;48.612;8.088;2023-04-26T13:50:51;99828.91;;;15.88;61.87
53671;BME280;39571;48.612;8.088;2023-04-26T13:53:16;99834.63;;;16.00;63.62
53671;BME280;39571;48.612;8.088;2023-04-26T13:55:43;99828.75;;;15.92;61.23
53671;BME280;39571;48.612;8.088;2023-04-26T13:58:09;99826.03;;;15.95;61.05
53671;BME280;39571;48.612;8.088;2023-04-26T14:00:34;99826.44;;;16.08;61.79
53671;BME280;39571;48.612;8.088;2023-04-26T14:03:00;99822.91;;;16.09;61.26
53671;BME280;39571;48.612;8.088;2023-04-26T14:05:25;99817.06;;;16.24;62.91
53671;BME280;39571;48.612;8.088;2023-04-26T14:07:50;99818.81;;;16.48;65.79
53671;BME280;39571;48.612;8.088;2023-04-26T14:10:16;99821.69;;;16.67;63.52
53671;BME280;39571;48.612;8.088;2023-04-26T14:12:41;99821.34;;;16.76;64.60
53671;BME280;39571;48.612;8.088;2023-04-26T14:15:07;99819.41;;;16.81;60.80
53671;BME280;39571;48.612;8.088;2023-04-26T14:17:32;99816.06;;;16.51;58.24
53671;BME280;39571;48.612;8.088;2023-04-26T14:19:58;99820.84;;;16.66;62.15
53671;BME280;39571;48.612;8.088;2023-04-26T14:22:24;99827.72;;;16.71;62.25
53671;BME280;39571;48.612;8.088;2023-04-26T14:24:49;99830.09;;;16.78;61.19
53671;BME280;39571;48.612;8.088;2023-04-26T14:27:15;99828.81;;;16.40;58.01
53671;BME280;39571;48.612;8.088;2023-04-26T14:29:41;99833.59;;;16.31;57.37
53671;BME280;39571;48.612;8.088;2023-04-26T14:32:06;99834.75;;;16.22;58.63
53671;BME280;39571;48.612;8.088;2023-04-26T14:34:32;99827.06;;;15.90;57.25
53671;BME280;39571;48.612;8.088;2023-04-26T14:37:00;99828.81;;;15.91;59.95
53671;BME280;39571;48.612;8.088;2023-04-26T14:39:28;99826.66;;;15.76;59.50
53671;BME280;39571;48.612;8.088;2023-04-26T14:41:53;99819.69;;;15.75;63.04
53671;BME280;39571;48.612;8.088;2023-04-26T14:44:24;99818.97;;;15.70;64.69
53671;BME280;39571;48.612;8.088;2023-04-26T14:46:50;99817.59;;;15.84;64.65
53671;BME280;39571;48.612;8.088;2023-04-26T14:49:16;99819.69;;;15.75;61.31
53671;BME280;39571;48.612;8.088;2023-04-26T14:51:42;99815.53;;;15.68;60.01
